• Join FlightAware (Why Join?)
  • Login
  • US Flag 
07:44PM EDT


 

Airport Tracker/Info


-or-


 

Live Flight TrackerFlight Track Log ✈ AAL863 ✈ 19-Jul-2014 ✈ KCLT - TAPA / ANU

Flight Track Log - Related Links

Times and Time Zones

All times are in EDT time to prevent confusion due to time zone crossing. See the AAL863 flight status page for this flight to view local times or setup timezone preferences in your user account.

Time Position Orientation Groundspeed Altitude Reporting Facility
EDT Latitude Longitude Course Direction KTS MPH feet Rate Location/Type
11:52AM 35.1258 -80.9264 132° Southeast 213 245 3,500  Level Atlanta Center
11:53AM 35.0558 -80.9097 169° South 274 315 6,100 2,160 Climbing Atlanta Center
11:54AM 34.9831 -80.9031 176° South 271 312 8,000 1,020 Climbing Atlanta Center
11:55AM 34.8723 -80.4839 180° South  Level Estimated
11:55AM 34.9097 -80.8975 176° South 267 307 8,300  Level Atlanta Center
11:56AM 34.7867 -80.3682 132° Southeast  Level Estimated
11:56AM 34.8153 -80.8975 180° South 278 320 10,600  Level Atlanta Center
11:57AM 34.7055 -80.2588 132° Southeast  Level Estimated
11:58AM 34.6242 -80.1497 132° Southeast  Level Estimated
11:58AM 34.7203 -80.8967 180° South 339 390 12,100  Level Atlanta Center
11:59AM 34.6203 -80.8883 176° South 356 410 14,400 1,920 Climbing Atlanta Center
12:00PM 34.5222 -80.8433 159° South 377 434 16,200 1,620 Climbing Atlanta Center
12:01PM 34.4206 -80.7939 158° South 385 443 17,800 1,620 Climbing Atlanta Center
12:02PM 34.2978 -80.7336 158° South 394 453 19,600 1,860 Climbing Atlanta Center
12:03PM 34.1922 -80.6819 158° South 403 464 21,700 2,400 Climbing Atlanta Center
12:04PM 34.0933 -80.6342 158° South 397 457 24,600 1,680 Climbing Atlanta Center
12:05PM 34.0233 -80.5431 133° Southeast 372 428 25,300 600 Climbing Atlanta Center
12:06PM 33.9489 -80.4397 131° Southeast 394 453 25,900 540 Climbing Atlanta Center
12:07PM 33.8533 -80.3086 131° Southeast 423 487 26,500 600 Climbing Atlanta Center
12:08PM 33.7675 -80.1922 132° Southeast 451 519 27,200 900 Climbing Atlanta Center
12:09PM 33.6814 -80.0742 131° Southeast 467 537 28,400 900 Climbing Atlanta Center
12:10PM 33.5806 -79.9333 131° Southeast 469 540 29,200 600 Climbing Jacksonville Center
12:11PM 33.4900 -79.8119 132° Southeast 480 552 29,700 600 Climbing Jacksonville Center
12:12PM 33.4014 -79.6931 132° Southeast 480 552 30,400 600 Climbing Jacksonville Center
12:13PM 33.3128 -79.5694 131° Southeast 480 552 31,000 660 Climbing Jacksonville Center
12:14PM 33.2219 -79.4511 133° Southeast 480 552 31,800 840 Climbing Jacksonville Center
12:15PM 33.1331 -79.3306 131° Southeast 480 552 32,700 840 Climbing Jacksonville Center
12:16PM 33.0442 -79.2153 133° Southeast 480 552 33,500 660 Climbing Jacksonville Center
12:17PM 32.9550 -79.0975 132° Southeast 480 552 34,100 600 Climbing Jacksonville Center
12:18PM 32.8658 -78.9803 132° Southeast 480 552 34,700 600 Climbing Jacksonville Center
12:19PM 32.7767 -78.8631 132° Southeast 480 552 35,300 600 Climbing Jacksonville Center
12:20PM 32.6892 -78.7436 131° Southeast 480 552 35,900 300 Climbing Jacksonville Center
12:21PM 32.6019 -78.6317 133° Southeast 475 547 36,000  Climbing Jacksonville Center
12:22PM 32.5214 -78.5269 132° Southeast 475 547 36,000  Level Jacksonville Center
12:23PM 32.4200 -78.4333 142° Southeast 468 539 36,000  Level Jacksonville Center
12:24PM 32.2847 -78.3908 165° South 455 524 36,000  Level Jacksonville Center
12:25PM 32.1608 -78.3700 172° South 450 518 36,000  Level Jacksonville Center
12:26PM 32.0347 -78.3469 171° South 450 518 36,000  Level Jacksonville Center
12:27PM 31.9128 -78.3186 169° South 455 524 36,000  Level Jacksonville Center
12:28PM 31.7867 -78.2956 171° South 455 524 36,000  Level Jacksonville Center
12:29PM 31.6586 -78.2775 173° South 455 524 36,000  Level Jacksonville Center
12:30PM 31.5472 -78.2514 169° South 455 524 36,000  Level Jacksonville Center
12:31PM 31.4211 -78.2283 171° South 455 524 36,000  Level Jacksonville Center
12:32PM 31.2972 -78.2078 172° South 455 524 36,000  Level Jacksonville Center
12:33PM 31.1706 -78.1753 168° South 455 524 36,000  Level Jacksonville Center
12:34PM 31.0447 -78.1550 172° South 455 524 36,000  Level Jacksonville Center
12:35PM 30.9039 -78.1331 172° South 455 524 36,000  Level Jacksonville Center
12:36PM 30.7736 -78.1081 171° South 470 541 36,000 -60 Level Jacksonville Center
12:37PM 30.6433 -78.0833 171° South 478 550 35,900  Descending Jacksonville Center
12:39PM 30.4736 -78.0531 171° South 465 535 36,000  Climbing Miami Center
12:40PM 30.3192 -78.0242 171° South 465 535 36,000  Level Miami Center
12:41PM 30.1839 -78.0000 171° South 472 543 36,000  Level Miami Center
12:42PM 30.0558 -77.9767 171° South 470 541 36,000  Level Miami Center
12:43PM 29.9256 -77.9536 171° South 469 540 36,000  Level Miami Center
12:44PM 29.7956 -77.9292 171° South 469 540 36,000  Level Miami Center
12:45PM 29.6681 -77.9067 171° South 469 540 36,000  Level Miami Center
12:46PM 29.5133 -77.8789 171° South 467 537 36,000  Level Miami Center
12:47PM 29.3842 -77.8558 171° South 467 537 36,000  Level Miami Center
12:48PM 29.2547 -77.8331 171° South 468 539 36,000  Level Miami Center
12:49PM 29.1267 -77.8103 171° South 467 537 36,000  Level Miami Center
12:50PM 28.9992 -77.7867 171° South 463 533 36,000  Level Miami Center
12:51PM 28.8714 -77.7647 171° South 463 533 36,000  Level Miami Center
12:52PM 28.7186 -77.7378 171° South 463 533 36,000 -540 Level Miami Center
12:53PM 28.5933 -77.7147 171° South 458 527 34,900 -1,020 Descending Miami Center
12:54PM 28.4669 -77.6928 171° South 457 526 33,900 -480 Descending Miami Center
12:55PM 28.3378 -77.6711 172° South 463 533 34,000  Climbing Miami Center
12:56PM 28.2106 -77.6469 170° South 464 534 34,000  Level Miami Center
12:57PM 28.0736 -77.5697 154° Southeast 461 531 34,000  Level Miami Center
12:58PM 27.9800 -77.4614 134° Southeast 460 529 34,000  Level Miami Center
12:59PM 27.8928 -77.3586 134° Southeast 456 525 34,000  Level Miami Center
01:00PM 27.7953 -77.2439 134° Southeast 456 525 34,000  Level Miami Center
01:01PM 27.7067 -77.1397 134° Southeast 457 526 34,000  Level Miami Center
01:02PM 27.6192 -77.0350 133° Southeast 457 526 34,000  Level Miami Center
01:04PM 27.5239 -76.9225 134° Southeast 456 525 34,000  Level Miami Center
01:05PM 27.4367 -76.8178 133° Southeast 456 525 34,000  Level Miami Center
01:06PM 27.3492 -76.7150 134° Southeast 456 525 34,000  Level Miami Center
01:07PM 27.2525 -76.6028 134° Southeast 455 524 34,000  Level Miami Center
01:08PM 27.1647 -76.4989 134° Southeast 455 524 34,100 420 Climbing Miami Center
01:09PM 27.0761 -76.3964 134° Southeast 456 525 34,900 420 Climbing Miami Center
01:10PM 26.9800 -76.2822 133° Southeast 457 526 35,000  Climbing Miami Center
01:11PM 26.8917 -76.1803 134° Southeast 455 524 35,000  Level Miami Center
01:12PM 26.8044 -76.0778 134° Southeast 455 524 35,000  Level Miami Center
01:13PM 26.7078 -75.9661 134° Southeast 455 524 35,000  Level Miami Center
01:14PM 26.6189 -75.8631 134° Southeast 456 525 35,000  Level Miami Center
01:15PM 26.5217 -75.7506 134° Southeast 456 525 35,000  Level Miami Center
01:16PM 26.4339 -75.6494 134° Southeast 455 524 35,000  Level Miami Center
01:17PM 26.3239 -75.5764 149° Southeast 460 529 35,000  Level Miami Center
01:18PM 26.1981 -75.5058 153° Southeast 458 527 35,000  Level Miami Center
01:19PM 26.0828 -75.4422 154° Southeast 459 528 35,000  Level Miami Center
01:20PM 25.9661 -75.3797 154° Southeast 461 531 35,000  Level Miami Center
01:21PM 25.8375 -75.3078 153° Southeast 464 534 35,000  Level Miami Center
01:22PM 25.7325 -75.2467 152° Southeast 463 533 35,000  Level Miami Center
01:23PM 25.6336 -75.1522 139° Southeast 464 534 35,000  Level Miami Center
01:24PM 25.5344 -75.0589 140° Southeast 465 535 35,000  Level Miami Center
01:25PM 25.4428 -74.9189 126° Southeast 466 536 35,000  Level Miami Center
01:26PM 25.3686 -74.8019 125° Southeast 465 535 35,000  Level Miami Center
01:27PM 25.2939 -74.6867 126° Southeast 461 531 35,000  Level Miami Center
01:28PM 25.2217 -74.5731 125° Southeast 455 524 35,000  Level Miami Center
01:29PM 25.1483 -74.4592 125° Southeast 455 524 35,000  Level Miami Center
01:31PM 25.0739 -74.3450 126° Southeast 455 524 35,000  Level Miami Center
01:32PM 24.9850 -74.2075 125° Southeast 456 525 35,000  Level Miami Center
01:33PM 24.9114 -74.0931 125° Southeast 456 525 35,000  Level Miami Center
01:34PM 24.8356 -73.9767 126° Southeast 461 531 35,000  Level Miami Center
01:35PM 24.7603 -73.8619 126° Southeast 461 531 35,000  Level Miami Center
01:36PM 24.6883 -73.7481 125° Southeast 452 520 35,000  Level Miami Center
01:37PM 24.6125 -73.6331 126° Southeast 460 529 35,000  Level Miami Center
01:38PM 24.5225 -73.4950 126° Southeast 462 532 35,000  Level Miami Center
01:39PM 24.4464 -73.3794 126° Southeast 462 532 35,000  Level Miami Center
01:40PM 24.3714 -73.2661 126° Southeast 462 532 35,000  Level Miami Center
01:41PM 24.2958 -73.1525 126° Southeast 461 531 35,000  Level Miami Center
01:42PM 24.2231 -73.0400 125° Southeast 456 525 35,100 240 Climbing Miami Center
01:43PM 24.1483 -72.9258 126° Southeast 456 525 35,600 600 Climbing Miami Center
01:44PM 24.0567 -72.7897 126° Southeast 459 528 36,400 660 Climbing Miami Center
01:45PM 23.9811 -72.6761 126° Southeast 459 528 37,000 240 Climbing Miami Center
01:46PM 23.9047 -72.5631 126° Southeast 459 528 37,000  Level Miami Center
01:47PM 23.8331 -72.4544 126° Southeast 459 528 37,000  Level Miami Center
01:48PM 23.7417 -72.3169 126° Southeast 460 529 37,000  Level Miami Center
01:49PM 23.6656 -72.2033 126° Southeast 460 529 37,000  Level Miami Center
01:50PM 23.5889 -72.0900 126° Southeast 461 531 37,000  Level Miami Center
01:51PM 23.5111 -71.9764 127° Southeast 462 532 37,000  Level Miami Center
01:52PM 23.4339 -71.8614 126° Southeast 466 536 37,000  Level Miami Center
01:53PM 23.3578 -71.7464 126° Southeast 466 536 37,000  Level Miami Center
01:54PM 23.2636 -71.6097 127° Southeast 467 537 37,000  Level Miami Center
01:55PM 23.1856 -71.4953 127° Southeast 468 539 37,000  Level Miami Center
01:56PM 23.1075 -71.3811 127° Southeast 468 539 37,000  Level Miami Center
01:58PM 23.0281 -71.2656 127° Southeast 469 540 37,000  Level Miami Center
01:59PM 22.9331 -71.1247 126° Southeast 475 547 37,000  Level Miami Center
02:00PM 22.8383 -70.9858 126° Southeast 475 547 37,000  Level Miami Center
02:01PM 22.7583 -70.8697 127° Southeast 475 547 37,000  Level Miami Center
02:02PM 22.6775 -70.7531 127° Southeast 475 547 37,000  Level Miami Center
02:03PM 22.5975 -70.6369 127° Southeast 476 548 37,000  Level Miami Center
02:04PM 22.5169 -70.5222 127° Southeast 476 548 37,000  Level Miami Center
02:05PM 22.4364 -70.4053 127° Southeast 476 548 37,000  Level Miami Center
02:06PM 22.3383 -70.2661 127° Southeast 477 549 37,000  Level Miami Center
02:07PM 22.2575 -70.1492 127° Southeast 478 550 37,000  Level Miami Center
02:08PM 22.1767 -70.0333 127° Southeast 480 552 37,000  Level Miami Center
02:09PM 22.0950 -69.9172 127° Southeast 480 552 37,000  Level Miami Center
02:10PM 22.0136 -69.7992 127° Southeast 483 556 37,000  Level Miami Center
02:11PM 21.9319 -69.6836 127° Southeast 483 556 37,000  Level Miami Center
02:12PM 21.8319 -69.5428 127° Southeast 484 557 37,000  Level Miami Center
02:13PM 21.7508 -69.4281 127° Southeast 484 557 37,000  Level Miami Center
02:14PM 21.6697 -69.3147 128° Southeast 484 557 37,000  Level Miami Center
02:15PM 21.5894 -69.1997 127° Southeast 483 556 37,000  Level Miami Center
02:16PM 21.5100 -69.0856 127° Southeast 481 554 37,000  Level Miami Center
02:17PM 21.4272 -68.9706 128° Southeast 481 554 37,000  Level Miami Center
02:19PM 21.3292 -68.8314 127° Southeast 481 554 37,000  Level Miami Center
02:20PM 21.2447 -68.7147 128° Southeast 486 559 37,000  Level Miami Center
02:21PM 21.1631 -68.6003 127° Southeast 486 559 37,000  Level Miami Center
02:22PM 21.0792 -68.4844 128° Southeast 486 559 37,000  Level Miami Center
02:23PM 20.9964 -68.3700 128° Southeast 486 559 37,000  Level Miami Center
02:24PM 20.8961 -68.2314 128° Southeast 486 559 37,000  Level Miami Center
02:25PM 20.8153 -68.1167 127° Southeast 486 559 37,000  Level Miami Center
02:26PM 20.7422 -67.9931 122° Southeast 488 562 37,000  Level Miami Center
02:27PM 20.6792 -67.8675 118° Southeast 488 562 37,000  Level Miami Center
02:28PM 20.6125 -67.7436 120° Southeast 485 558 37,000  Level Miami Center
02:29PM 20.5386 -67.6133 121° Southeast 485 558 37,000  Level Miami Center
02:30PM 20.4500 -67.4667 123° Southeast 480 552 37,000  Level San Juan Center
02:31PM 20.3833 -67.3500 121° Southeast 480 552 37,000  Level San Juan Center
02:32PM 20.3167 -67.2167 118° Southeast 480 552 37,000  Level San Juan Center
02:33PM 20.2667 -67.1167 118° Southeast 480 552 37,000  Level San Juan Center
02:34PM 20.1833 -66.9667 121° Southeast 480 552 37,000  Level San Juan Center
02:35PM 20.1167 -66.8500 121° Southeast 480 552 37,000  Level San Juan Center
02:36PM 20.0500 -66.7333 121° Southeast 470 541 37,000  Level San Juan Center
02:37PM 19.9833 -66.6167 121° Southeast 470 541 37,000  Level San Juan Center
02:38PM 19.9167 -66.4833 118° Southeast 470 541 37,000  Level San Juan Center
02:39PM 19.8500 -66.3667 121° Southeast 470 541 37,000  Level San Juan Center
02:40PM 19.7833 -66.2500 121° Southeast 470 541 37,000  Level San Juan Center
02:41PM 19.7167 -66.1333 121° Southeast 470 541 37,000  Level San Juan Center
02:42PM 19.6500 -66.0167 121° Southeast 470 541 37,000  Level San Juan Center
02:43PM 19.5833 -65.8833 118° Southeast 470 541 37,000  Level San Juan Center
02:44PM 19.5167 -65.7667 121° Southeast 470 541 37,000  Level San Juan Center
02:45PM 19.4500 -65.6500 121° Southeast 470 541 37,000  Level San Juan Center
02:46PM 19.3667 -65.5333 127° Southeast 470 541 37,000  Level San Juan Center
02:47PM 19.3167 -65.4167 114° Southeast 470 541 37,000  Level San Juan Center
02:48PM 19.2333 -65.3000 127° Southeast 460 529 37,000  Level San Juan Center
02:49PM 19.1667 -65.1833 121° Southeast 460 529 37,000  Level San Juan Center
02:50PM 19.1000 -65.0667 121° Southeast 460 529 37,000  Level San Juan Center
02:51PM 19.0500 -64.9500 114° Southeast 470 541 37,000  Level San Juan Center
02:52PM 18.9667 -64.8333 127° Southeast 460 529 37,000  Level San Juan Center
02:53PM 18.9167 -64.7167 114° Southeast 470 541 37,000  Level San Juan Center
02:54PM 18.8333 -64.6000 127° Southeast 470 541 37,000  Level San Juan Center
02:55PM 18.7667 -64.4833 121° Southeast 470 541 37,000  Level San Juan Center
02:56PM 18.7000 -64.3667 121° Southeast 470 541 37,000  Level San Juan Center
02:57PM 18.6333 -64.2500 121° Southeast 460 529 37,000  Level San Juan Center
02:58PM 18.5667 -64.1333 121° Southeast 460 529 37,000  Level San Juan Center
02:59PM 18.5000 -64.0167 121° Southeast 460 529 37,000  Level San Juan Center
03:00PM 18.4333 -63.9000 121° Southeast 470 541 37,000 -660 Level San Juan Center
03:01PM 18.3667 -63.7833 121° Southeast 460 529 35,700 -1,560 Descending San Juan Center
03:02PM 18.3000 -63.6667 121° Southeast 460 529 33,900 -1,980 Descending San Juan Center
03:03PM 18.2333 -63.5500 121° Southeast 470 541 31,800 -2,100 Descending San Juan Center
03:04PM 18.1667 -63.4333 121° Southeast 480 552 29,800 -2,040 Descending San Juan Center
03:05PM 18.0833 -63.3167 127° Southeast 470 541 27,800 -2,100 Descending San Juan Center
03:06PM 18.0167 -63.2000 121° Southeast 470 541 25,700 -1,980 Descending San Juan Center
03:07PM 17.9500 -63.1000 125° Southeast 450 518 23,900 -1,980 Descending San Juan Center
03:08PM 17.8833 -62.9667 118° Southeast 470 541 21,800 -2,100 Descending San Juan Center
03:09PM 17.8167 -62.8500 121° Southeast 460 529 19,800 -1,440 Descending San Juan Center
03:10PM 17.7500 -62.7500 125° Southeast 450 518 18,900 -900 Descending San Juan Center
03:12PM 17.6661 -62.5821 118° Southeast  Level FlightAware Approximate
03:19PM 17.1671 -61.8505 128° Southeast  Level FlightAware Approximate
03:20PM 17.1367 -61.7927 122° Southeast  Level Estimated
03:21PM 17.1367 -61.7927 122° Southeast  Level Estimated
03:22PM 17.1367 -61.7927 122° Southeast  Level Estimated
03:23PM 17.1367 -61.7927 122° Southeast  Level Estimated
03:24PM 17.1367 -61.7927 122° Southeast  Level Estimated
03:25PM 17.1367 -61.7927 122° Southeast  Level Estimated
03:26PM 17.1367 -61.7927 122° Southeast  Level Estimated
03:27PM 17.1367 -61.7927 122° Southeast  Level Estimated
03:28PM 17.1367 -61.7927 122° Southeast  Level Estimated
03:29PM 17.1367 -61.7927 122° Southeast  Level Estimated